Odessa, TX

7:22 AM CDT on August 28, 2014 (GMT -0500)
E. University Blvd and Bonham Ave Odessa TX | Change Station
CLOSE
Current Station
Personal Weather Station
Location: Odessa, TX
Elevation: 2949 ft
Nearby Weather Stations

Elev 2949 ft 31.87 °N, 102.35 °W | Updated 2 minutes ago

Partly Cloudy
Partly Cloudy
72.3 °F
Feels Like 75 °F
N
0.0
Wind Variable Wind from South

Today
High -- | Low -- °F
--% Chance of Precip.
Yesterday
High -- | Low -- °F
Precip. -- in
7:22 AM 8:18 PM
Waxing Crescent, 8% visible
Pressure 29.86 in
Visibility 10.0 miles
Clouds Clear
Heat Index 75 °F
Dew Point 61 °F
Humidity 68%
Rainfall 0.00 in
Snow Depth Not available.
UV 0 out of 12
Pollen 9.90 out of 12
PM2.5 Good
Flu Activity Not available.
METAR KODO 281153Z AUTO 18006KT 10SM CLR 24/15 A3002 RMK AO2 SLP112 T02440150 10283 20244 56003

More Conditions Fewer Conditions

Pressure 29.86 in
Visibility 10.0 miles
Clouds Clear
Heat Index 75 °F
Dew Point 61 °F
Humidity 68%
Rainfall 0.00 in
Snow Depth Not available.
UV 0 out of 12
Pollen 9.90 out of 12
PM2.5 Good
Flu Activity Not available.
METAR KODO 281153Z AUTO 18006KT 10SM CLR 24/15 A3002 RMK AO2 SLP112 T02440150 10283 20244 56003

More Conditions Fewer Conditions

10-Day Weather Forecast

Almanac

Astronomy

Aug. 28, 2014 Rise Set
Actual Time 7:22 AM CDT 8:18 PM CDT
Civil Twilight 6:57 AM CDT 8:43 PM CDT
Nautical Twilight 6:28 AM CDT 9:13 PM CDT
Astronomical Twilight 5:57 AM CDT 9:43 PM CDT
Moon 10:04 AM CDT 9:58 PM CDT
Length of Visible Light 13h 45m
Length of Day
12h 55m
Tomorrow will be 1m 51s shorter.
Waxing Crescent, 8% of the Moon is Illuminated
Today
Waxing Crescent
Sep 2
First Quarter
Sep 8
Full
Sep 15
Last Quarter
Sep 24
New

Today's Extremes

State Highs State Lows

Community

WunderPhotos

Upload Photos

1,747,938 photos uploaded!

Nearby

Air Quality

  Air Quality AQ Index Pollutant
Yesterday Moderate
PM2.5
Current Good
PM2.5
Thursday Good
PM10
Thursday Good
OZONE
Friday Good
PM10
Friday Good
OZONE
Saturday Good
PM10
Saturday Good
OZONE

Snow Depth

Station Depth Elevation
No new snow has been reported.

Earthquake Activity

City Distance Mag. Time & Date
No recent earthquake activity has been reported nearby.
Minimum magnitude displayed is 2.5.

Coastal Water Temperatures

Place Temperature
No Stations Reporting

Nearby Weather Stations